sensor_id;sensor_type;location;lat;lon;timestamp;pressure;altitude;pressure_sealevel;temperature;humidity
75414;BME280;64758;52.122;5.404;2023-06-22T00:02:25;102139.53;;;16.70;96.36
75414;BME280;64758;52.122;5.404;2023-06-22T00:04:52;102146.94;;;16.68;96.43
75414;BME280;64758;52.122;5.404;2023-06-22T00:07:19;102140.72;;;16.68;96.18
75414;BME280;64758;52.122;5.404;2023-06-22T00:09:45;102138.81;;;16.62;96.58
75414;BME280;64758;52.122;5.404;2023-06-22T00:12:12;102153.06;;;16.63;96.96
75414;BME280;64758;52.122;5.404;2023-06-22T00:14:38;102155.94;;;16.61;97.15
75414;BME280;64758;52.122;5.404;2023-06-22T00:17:05;102140.22;;;16.58;96.82
75414;BME280;64758;52.122;5.404;2023-06-22T00:19:31;102138.78;;;16.56;96.68
75414;BME280;64758;52.122;5.404;2023-06-22T00:21:59;102135.28;;;16.55;96.91
75414;BME280;64758;52.122;5.404;2023-06-22T00:24:26;102139.38;;;16.51;97.12
75414;BME280;64758;52.122;5.404;2023-06-22T00:26:53;102139.94;;;16.47;96.60
75414;BME280;64758;52.122;5.404;2023-06-22T00:29:20;102144.66;;;16.45;97.07
75414;BME280;64758;52.122;5.404;2023-06-22T00:31:49;102135.97;;;16.43;97.38
75414;BME280;64758;52.122;5.404;2023-06-22T00:34:16;102131.84;;;16.40;97.55
75414;BME280;64758;52.122;5.404;2023-06-22T00:36:42;102128.91;;;16.35;97.39
75414;BME280;64758;52.122;5.404;2023-06-22T00:39:09;102129.41;;;16.31;97.58
75414;BME280;64758;52.122;5.404;2023-06-22T00:41:36;102123.81;;;16.26;98.01
75414;BME280;64758;52.122;5.404;2023-06-22T00:44:03;102121.72;;;16.21;98.05
75414;BME280;64758;52.122;5.404;2023-06-22T00:46:30;102122.09;;;16.18;98.43
75414;BME280;64758;52.122;5.404;2023-06-22T00:48:56;102125.22;;;16.22;98.58
75414;BME280;64758;52.122;5.404;2023-06-22T00:51:23;102116.34;;;16.21;98.49
75414;BME280;64758;52.122;5.404;2023-06-22T00:53:51;102119.59;;;16.17;98.31
75414;BME280;64758;52.122;5.404;2023-06-22T00:56:20;102130.06;;;16.12;98.12
75414;BME280;64758;52.122;5.404;2023-06-22T00:58:51;102121.38;;;16.10;98.44
75414;BME280;64758;52.122;5.404;2023-06-22T01:01:19;102121.09;;;16.05;98.69
75414;BME280;64758;52.122;5.404;2023-06-22T01:03:50;102117.41;;;16.06;98.49
75414;BME280;64758;52.122;5.404;2023-06-22T01:06:37;102108.28;;;16.00;98.40
75414;BME280;64758;52.122;5.404;2023-06-22T01:09:28;102122.34;;;16.02;98.44
75414;BME280;64758;52.122;5.404;2023-06-22T01:12:01;102115.44;;;15.93;98.96
75414;BME280;64758;52.122;5.404;2023-06-22T01:14:35;102122.63;;;15.93;98.64
75414;BME280;64758;52.122;5.404;2023-06-22T01:17:05;102126.06;;;15.87;98.28
75414;BME280;64758;52.122;5.404;2023-06-22T01:19:49;102141.97;;;15.88;98.76
75414;BME280;64758;52.122;5.404;2023-06-22T01:22:24;102122.84;;;15.91;99.12
75414;BME280;64758;52.122;5.404;2023-06-22T01:24:57;102127.28;;;15.84;97.47
75414;BME280;64758;52.122;5.404;2023-06-22T01:30:29;102109.41;;;15.70;98.90
75414;BME280;64758;52.122;5.404;2023-06-22T01:32:57;102124.44;;;15.71;98.55
75414;BME280;64758;52.122;5.404;2023-06-22T01:35:25;102115.78;;;15.69;98.88
75414;BME280;64758;52.122;5.404;2023-06-22T01:37:52;102119.47;;;15.68;99.20
75414;BME280;64758;52.122;5.404;2023-06-22T01:40:19;102115.31;;;15.66;99.34
75414;BME280;64758;52.122;5.404;2023-06-22T01:42:48;102122.53;;;15.65;99.18
75414;BME280;64758;52.122;5.404;2023-06-22T01:45:15;102121.41;;;15.60;99.41
75414;BME280;64758;52.122;5.404;2023-06-22T01:47:42;102112.28;;;15.54;99.85
75414;BME280;64758;52.122;5.404;2023-06-22T01:50:09;102115.63;;;15.56;99.74
75414;BME280;64758;52.122;5.404;2023-06-22T01:52:36;102112.66;;;15.51;99.64
75414;BME280;64758;52.122;5.404;2023-06-22T01:55:02;102120.06;;;15.49;100.00
75414;BME280;64758;52.122;5.404;2023-06-22T01:57:31;102118.38;;;15.48;100.00
75414;BME280;64758;52.122;5.404;2023-06-22T02:00:07;102114.22;;;15.46;100.00
75414;BME280;64758;52.122;5.404;2023-06-22T02:05:20;102114.59;;;15.43;100.00
75414;BME280;64758;52.122;5.404;2023-06-22T02:08:02;102104.09;;;15.41;100.00
75414;BME280;64758;52.122;5.404;2023-06-22T02:10:34;102107.78;;;15.40;100.00
75414;BME280;64758;52.122;5.404;2023-06-22T02:13:05;102103.97;;;15.35;100.00
75414;BME280;64758;52.122;5.404;2023-06-22T02:15:32;102095.88;;;15.29;99.80
75414;BME280;64758;52.122;5.404;2023-06-22T02:18:00;102098.91;;;15.26;100.00
75414;BME280;64758;52.122;5.404;2023-06-22T02:20:26;102111.47;;;15.25;99.73
75414;BME280;64758;52.122;5.404;2023-06-22T02:22:54;102119.66;;;15.24;100.00
75414;BME280;64758;52.122;5.404;2023-06-22T02:25:20;102105.63;;;15.22;99.80
75414;BME280;64758;52.122;5.404;2023-06-22T02:27:47;102099.84;;;15.18;100.00
75414;BME280;64758;52.122;5.404;2023-06-22T02:30:14;102101.59;;;15.11;99.72
75414;BME280;64758;52.122;5.404;2023-06-22T02:32:42;102101.75;;;15.10;99.97
75414;BME280;64758;52.122;5.404;2023-06-22T02:35:09;102109.13;;;15.08;99.86
75414;BME280;64758;52.122;5.404;2023-06-22T02:37:36;102115.50;;;15.07;100.00
75414;BME280;64758;52.122;5.404;2023-06-22T02:40:08;102106.03;;;15.04;100.00
75414;BME280;64758;52.122;5.404;2023-06-22T02:42:38;102107.84;;;15.04;100.00
75414;BME280;64758;52.122;5.404;2023-06-22T02:45:05;102113.41;;;15.02;100.00
75414;BME280;64758;52.122;5.404;2023-06-22T02:47:32;102103.88;;;15.00;100.00
75414;BME280;64758;52.122;5.404;2023-06-22T02:49:59;102095.56;;;14.95;100.00
75414;BME280;64758;52.122;5.404;2023-06-22T02:52:25;102092.81;;;14.88;100.00
75414;BME280;64758;52.122;5.404;2023-06-22T02:54:52;102097.31;;;14.88;100.00
75414;BME280;64758;52.122;5.404;2023-06-22T02:57:18;102100.56;;;14.83;99.94
75414;BME280;64758;52.122;5.404;2023-06-22T02:59:45;102094.72;;;14.80;100.00
75414;BME280;64758;52.122;5.404;2023-06-22T03:02:11;102102.47;;;14.75;100.00
75414;BME280;64758;52.122;5.404;2023-06-22T03:04:38;102100.72;;;14.67;100.00
75414;BME280;64758;52.122;5.404;2023-06-22T03:07:05;102108.91;;;14.66;100.00
75414;BME280;64758;52.122;5.404;2023-06-22T03:09:33;102097.56;;;14.64;100.00
75414;BME280;64758;52.122;5.404;2023-06-22T03:11:59;102108.09;;;14.65;100.00
75414;BME280;64758;52.122;5.404;2023-06-22T03:14:26;102104.75;;;14.63;100.00
75414;BME280;64758;52.122;5.404;2023-06-22T03:16:53;102107.16;;;14.58;100.00
75414;BME280;64758;52.122;5.404;2023-06-22T03:19:19;102100.31;;;14.56;100.00
75414;BME280;64758;52.122;5.404;2023-06-22T03:21:48;102100.94;;;14.58;100.00
75414;BME280;64758;52.122;5.404;2023-06-22T03:24:14;102102.63;;;14.59;100.00
75414;BME280;64758;52.122;5.404;2023-06-22T03:26:41;102108.81;;;14.59;100.00
75414;BME280;64758;52.122;5.404;2023-06-22T03:29:07;102096.44;;;14.58;100.00
75414;BME280;64758;52.122;5.404;2023-06-22T03:31:34;102087.94;;;14.55;100.00
75414;BME280;64758;52.122;5.404;2023-06-22T03:34:00;102085.09;;;14.56;100.00
75414;BME280;64758;52.122;5.404;2023-06-22T03:36:27;102074.56;;;14.55;100.00
75414;BME280;64758;52.122;5.404;2023-06-22T03:38:54;102078.25;;;14.54;100.00
75414;BME280;64758;52.122;5.404;2023-06-22T03:41:20;102076.16;;;14.49;100.00
75414;BME280;64758;52.122;5.404;2023-06-22T03:43:47;102081.84;;;14.46;100.00
75414;BME280;64758;52.122;5.404;2023-06-22T03:46:14;102081.50;;;14.49;100.00
75414;BME280;64758;52.122;5.404;2023-06-22T03:48:40;102087.28;;;14.53;100.00
75414;BME280;64758;52.122;5.404;2023-06-22T03:51:07;102079.09;;;14.54;100.00
75414;BME280;64758;52.122;5.404;2023-06-22T03:53:33;102074.78;;;14.53;100.00
75414;BME280;64758;52.122;5.404;2023-06-22T03:56:00;102075.41;;;14.55;100.00
75414;BME280;64758;52.122;5.404;2023-06-22T03:58:26;102076.22;;;14.56;100.00
75414;BME280;64758;52.122;5.404;2023-06-22T04:00:59;102074.94;;;14.52;100.00
75414;BME280;64758;52.122;5.404;2023-06-22T04:03:26;102072.91;;;14.54;100.00
75414;BME280;64758;52.122;5.404;2023-06-22T04:05:53;102073.56;;;14.56;100.00
75414;BME280;64758;52.122;5.404;2023-06-22T04:08:20;102077.44;;;14.53;100.00
75414;BME280;64758;52.122;5.404;2023-06-22T04:10:46;102066.56;;;14.55;100.00
75414;BME280;64758;52.122;5.404;2023-06-22T04:13:13;102072.19;;;14.60;100.00
75414;BME280;64758;52.122;5.404;2023-06-22T04:15:39;102068.13;;;14.64;100.00
75414;BME280;64758;52.122;5.404;2023-06-22T04:18:06;102058.38;;;14.71;100.00
75414;BME280;64758;52.122;5.404;2023-06-22T04:20:32;102055.59;;;14.79;100.00
75414;BME280;64758;52.122;5.404;2023-06-22T04:22:59;102058.69;;;14.90;100.00
75414;BME280;64758;52.122;5.404;2023-06-22T04:25:26;102069.72;;;15.02;100.00
75414;BME280;64758;52.122;5.404;2023-06-22T04:27:53;102064.66;;;15.07;100.00
75414;BME280;64758;52.122;5.404;2023-06-22T04:30:19;102062.72;;;15.15;100.00
75414;BME280;64758;52.122;5.404;2023-06-22T04:32:46;102057.28;;;15.23;100.00
75414;BME280;64758;52.122;5.404;2023-06-22T04:35:24;102050.25;;;15.36;100.00
75414;BME280;64758;52.122;5.404;2023-06-22T04:37:53;102060.50;;;15.47;100.00
75414;BME280;64758;52.122;5.404;2023-06-22T04:40:24;102047.00;;;15.55;100.00
75414;BME280;64758;52.122;5.404;2023-06-22T04:42:51;102046.41;;;15.60;100.00
75414;BME280;64758;52.122;5.404;2023-06-22T04:45:20;102053.56;;;15.74;100.00
75414;BME280;64758;52.122;5.404;2023-06-22T04:47:47;102054.56;;;15.87;100.00
75414;BME280;64758;52.122;5.404;2023-06-22T04:50:14;102060.44;;;15.97;100.00
75414;BME280;64758;52.122;5.404;2023-06-22T04:52:41;102057.25;;;16.08;100.00
75414;BME280;64758;52.122;5.404;2023-06-22T04:55:08;102050.50;;;16.19;100.00
75414;BME280;64758;52.122;5.404;2023-06-22T04:57:35;102059.81;;;16.37;100.00
75414;BME280;64758;52.122;5.404;2023-06-22T05:00:02;102069.22;;;16.54;100.00
75414;BME280;64758;52.122;5.404;2023-06-22T05:02:41;102062.66;;;16.63;100.00
75414;BME280;64758;52.122;5.404;2023-06-22T05:05:08;102066.28;;;16.76;100.00
75414;BME280;64758;52.122;5.404;2023-06-22T05:07:35;102060.31;;;16.81;100.00
75414;BME280;64758;52.122;5.404;2023-06-22T05:10:03;102070.72;;;16.90;100.00
75414;BME280;64758;52.122;5.404;2023-06-22T05:12:30;102074.91;;;16.99;100.00
75414;BME280;64758;52.122;5.404;2023-06-22T05:14:57;102062.13;;;17.08;100.00
75414;BME280;64758;52.122;5.404;2023-06-22T05:17:24;102059.28;;;17.16;100.00
75414;BME280;64758;52.122;5.404;2023-06-22T05:19:51;102057.28;;;17.24;100.00
75414;BME280;64758;52.122;5.404;2023-06-22T05:22:18;102064.34;;;17.32;100.00
75414;BME280;64758;52.122;5.404;2023-06-22T05:24:46;102062.91;;;17.36;100.00
75414;BME280;64758;52.122;5.404;2023-06-22T05:27:14;102064.00;;;17.48;100.00
75414;BME280;64758;52.122;5.404;2023-06-22T05:29:41;102066.72;;;17.61;100.00
75414;BME280;64758;52.122;5.404;2023-06-22T05:32:09;102065.94;;;17.67;100.00
75414;BME280;64758;52.122;5.404;2023-06-22T05:34:35;102060.78;;;17.72;100.00
75414;BME280;64758;52.122;5.404;2023-06-22T05:37:02;102056.69;;;17.82;100.00
75414;BME280;64758;52.122;5.404;2023-06-22T05:39:29;102064.97;;;17.93;100.00
75414;BME280;64758;52.122;5.404;2023-06-22T05:41:55;102064.97;;;18.00;100.00
75414;BME280;64758;52.122;5.404;2023-06-22T05:44:22;102066.63;;;18.01;100.00
75414;BME280;64758;52.122;5.404;2023-06-22T05:46:48;102075.13;;;18.04;100.00
75414;BME280;64758;52.122;5.404;2023-06-22T05:49:16;102070.78;;;18.10;100.00
75414;BME280;64758;52.122;5.404;2023-06-22T05:51:43;102070.56;;;18.18;100.00
75414;BME280;64758;52.122;5.404;2023-06-22T05:54:10;102068.94;;;18.23;100.00
75414;BME280;64758;52.122;5.404;2023-06-22T05:56:36;102066.50;;;18.28;100.00
75414;BME280;64758;52.122;5.404;2023-06-22T05:59:04;102067.94;;;18.37;100.00
75414;BME280;64758;52.122;5.404;2023-06-22T06:01:31;102076.22;;;18.62;100.00
75414;BME280;64758;52.122;5.404;2023-06-22T06:04:05;102082.41;;;18.88;100.00
75414;BME280;64758;52.122;5.404;2023-06-22T06:06:34;102072.00;;;19.05;100.00
75414;BME280;64758;52.122;5.404;2023-06-22T06:09:04;102064.72;;;19.18;100.00
75414;BME280;64758;52.122;5.404;2023-06-22T06:11:30;102067.59;;;19.29;100.00
75414;BME280;64758;52.122;5.404;2023-06-22T06:13:57;102068.41;;;19.36;98.29
75414;BME280;64758;52.122;5.404;2023-06-22T06:16:24;102055.06;;;19.48;99.26
75414;BME280;64758;52.122;5.404;2023-06-22T06:18:50;102051.06;;;19.63;97.71
75414;BME280;64758;52.122;5.404;2023-06-22T06:21:17;102044.38;;;19.72;94.58
75414;BME280;64758;52.122;5.404;2023-06-22T06:23:44;102043.28;;;19.80;95.31
75414;BME280;64758;52.122;5.404;2023-06-22T06:26:10;102054.22;;;19.91;93.20
75414;BME280;64758;52.122;5.404;2023-06-22T06:28:37;102049.63;;;19.98;93.86
75414;BME280;64758;52.122;5.404;2023-06-22T06:31:03;102053.94;;;20.06;93.25
75414;BME280;64758;52.122;5.404;2023-06-22T06:33:34;102038.53;;;20.13;93.59
75414;BME280;64758;52.122;5.404;2023-06-22T06:36:00;102045.31;;;20.22;92.12
75414;BME280;64758;52.122;5.404;2023-06-22T06:38:30;102042.13;;;20.31;91.40
75414;BME280;64758;52.122;5.404;2023-06-22T06:40:58;102041.63;;;20.41;91.99
75414;BME280;64758;52.122;5.404;2023-06-22T06:43:25;102040.06;;;20.51;90.40
75414;BME280;64758;52.122;5.404;2023-06-22T06:45:51;102035.44;;;20.58;89.72
75414;BME280;64758;52.122;5.404;2023-06-22T06:48:18;102031.03;;;20.63;89.15
75414;BME280;64758;52.122;5.404;2023-06-22T06:50:45;102033.03;;;20.68;88.71
75414;BME280;64758;52.122;5.404;2023-06-22T06:53:11;102023.41;;;20.78;89.14
75414;BME280;64758;52.122;5.404;2023-06-22T06:55:38;102027.53;;;20.81;88.32
75414;BME280;64758;52.122;5.404;2023-06-22T06:58:04;102033.09;;;20.86;87.26
75414;BME280;64758;52.122;5.404;2023-06-22T07:00:34;102034.91;;;20.92;86.41
75414;BME280;64758;52.122;5.404;2023-06-22T07:03:02;102031.75;;;20.95;85.63
75414;BME280;64758;52.122;5.404;2023-06-22T07:05:28;102026.75;;;20.98;85.91
75414;BME280;64758;52.122;5.404;2023-06-22T07:07:55;102027.94;;;21.02;87.18
75414;BME280;64758;52.122;5.404;2023-06-22T07:10:22;102024.78;;;21.05;85.79
75414;BME280;64758;52.122;5.404;2023-06-22T07:12:48;102019.28;;;21.12;86.54
75414;BME280;64758;52.122;5.404;2023-06-22T07:15:15;102016.38;;;21.13;84.41
75414;BME280;64758;52.122;5.404;2023-06-22T07:17:41;102016.53;;;21.18;84.29
75414;BME280;64758;52.122;5.404;2023-06-22T07:20:09;102020.94;;;21.31;85.67
75414;BME280;64758;52.122;5.404;2023-06-22T07:22:41;102021.91;;;21.36;83.71
75414;BME280;64758;52.122;5.404;2023-06-22T07:25:08;102024.06;;;21.46;83.20
75414;BME280;64758;52.122;5.404;2023-06-22T07:27:37;102019.78;;;21.56;82.68
75414;BME280;64758;52.122;5.404;2023-06-22T07:30:04;102020.78;;;21.73;82.98
75414;BME280;64758;52.122;5.404;2023-06-22T07:32:31;102018.94;;;21.85;81.45
75414;BME280;64758;52.122;5.404;2023-06-22T07:34:58;102024.84;;;21.93;82.16
75414;BME280;64758;52.122;5.404;2023-06-22T07:37:24;102017.22;;;22.02;78.94
75414;BME280;64758;52.122;5.404;2023-06-22T07:39:51;102018.88;;;22.03;76.55
75414;BME280;64758;52.122;5.404;2023-06-22T07:42:20;102019.97;;;22.13;78.02
75414;BME280;64758;52.122;5.404;2023-06-22T07:44:46;102002.66;;;22.14;75.62
75414;BME280;64758;52.122;5.404;2023-06-22T07:47:13;102004.91;;;22.17;77.63
75414;BME280;64758;52.122;5.404;2023-06-22T07:49:39;101991.59;;;22.16;77.22
75414;BME280;64758;52.122;5.404;2023-06-22T07:52:06;101992.44;;;22.16;77.31
75414;BME280;64758;52.122;5.404;2023-06-22T07:54:33;101995.00;;;22.23;77.23
75414;BME280;64758;52.122;5.404;2023-06-22T07:56:59;102006.22;;;22.26;76.77
75414;BME280;64758;52.122;5.404;2023-06-22T07:59:26;101996.78;;;22.29;76.13
75414;BME280;64758;52.122;5.404;2023-06-22T08:01:54;102000.66;;;22.33;75.77
75414;BME280;64758;52.122;5.404;2023-06-22T08:04:21;101995.06;;;22.46;77.45
75414;BME280;64758;52.122;5.404;2023-06-22T08:06:47;101989.06;;;22.55;77.51
75414;BME280;64758;52.122;5.404;2023-06-22T08:09:15;101983.28;;;22.63;78.20
75414;BME280;64758;52.122;5.404;2023-06-22T08:11:41;101975.38;;;22.73;75.37
75414;BME280;64758;52.122;5.404;2023-06-22T08:14:08;101979.00;;;22.79;73.89
75414;BME280;64758;52.122;5.404;2023-06-22T08:16:35;101970.28;;;22.88;76.81
75414;BME280;64758;52.122;5.404;2023-06-22T08:19:01;101958.81;;;22.98;75.40
75414;BME280;64758;52.122;5.404;2023-06-22T08:21:28;101959.63;;;23.10;73.34
75414;BME280;64758;52.122;5.404;2023-06-22T08:23:54;101967.63;;;23.16;72.92
75414;BME280;64758;52.122;5.404;2023-06-22T08:26:21;101957.13;;;23.20;73.57
75414;BME280;64758;52.122;5.404;2023-06-22T08:28:48;101950.19;;;23.12;72.25
75414;BME280;64758;52.122;5.404;2023-06-22T08:31:16;101949.25;;;23.07;73.44
75414;BME280;64758;52.122;5.404;2023-06-22T08:33:43;101939.47;;;23.06;71.94
75414;BME280;64758;52.122;5.404;2023-06-22T08:36:15;101927.78;;;23.17;73.33
75414;BME280;64758;52.122;5.404;2023-06-22T08:38:42;101935.53;;;23.25;73.11
75414;BME280;64758;52.122;5.404;2023-06-22T08:41:09;101924.59;;;23.20;70.75
75414;BME280;64758;52.122;5.404;2023-06-22T08:43:36;101934.50;;;23.14;69.47
75414;BME280;64758;52.122;5.404;2023-06-22T08:46:02;101920.06;;;23.25;70.61
75414;BME280;64758;52.122;5.404;2023-06-22T08:48:29;101919.00;;;23.26;70.30
75414;BME280;64758;52.122;5.404;2023-06-22T08:50:55;101922.25;;;23.39;68.61
75414;BME280;64758;52.122;5.404;2023-06-22T08:53:22;101920.38;;;23.56;66.72
75414;BME280;64758;52.122;5.404;2023-06-22T08:55:49;101921.63;;;23.65;65.84
75414;BME280;64758;52.122;5.404;2023-06-22T08:58:17;101918.13;;;23.81;64.40
75414;BME280;64758;52.122;5.404;2023-06-22T09:00:44;101919.94;;;23.92;67.01
75414;BME280;64758;52.122;5.404;2023-06-22T09:03:11;101922.81;;;24.02;65.50
75414;BME280;64758;52.122;5.404;2023-06-22T09:05:38;101927.69;;;24.00;66.98
75414;BME280;64758;52.122;5.404;2023-06-22T09:08:05;101927.13;;;23.98;64.95
75414;BME280;64758;52.122;5.404;2023-06-22T09:10:32;101916.25;;;23.98;64.56
75414;BME280;64758;52.122;5.404;2023-06-22T09:12:59;101919.03;;;24.03;63.09
75414;BME280;64758;52.122;5.404;2023-06-22T09:15:25;101922.00;;;24.02;61.60
75414;BME280;64758;52.122;5.404;2023-06-22T09:17:52;101915.41;;;24.14;61.59
75414;BME280;64758;52.122;5.404;2023-06-22T09:20:20;101912.31;;;24.27;59.10
75414;BME280;64758;52.122;5.404;2023-06-22T09:22:47;101911.09;;;24.35;61.50
75414;BME280;64758;52.122;5.404;2023-06-22T09:25:14;101915.31;;;24.47;59.59
75414;BME280;64758;52.122;5.404;2023-06-22T09:27:40;101904.25;;;24.49;60.68
75414;BME280;64758;52.122;5.404;2023-06-22T09:30:07;101915.56;;;24.62;61.24
75414;BME280;64758;52.122;5.404;2023-06-22T09:32:34;101915.25;;;24.80;60.99
75414;BME280;64758;52.122;5.404;2023-06-22T09:35:04;101913.44;;;24.85;60.79
75414;BME280;64758;52.122;5.404;2023-06-22T09:37:32;101913.09;;;25.03;61.10
75414;BME280;64758;52.122;5.404;2023-06-22T09:39:58;101908.16;;;25.22;60.75
75414;BME280;64758;52.122;5.404;2023-06-22T09:42:25;101912.69;;;25.38;59.12
75414;BME280;64758;52.122;5.404;2023-06-22T09:44:52;101908.72;;;25.50;56.11
75414;BME280;64758;52.122;5.404;2023-06-22T09:47:18;101908.94;;;25.44;56.36
75414;BME280;64758;52.122;5.404;2023-06-22T09:49:45;101897.88;;;25.29;55.93
75414;BME280;64758;52.122;5.404;2023-06-22T09:52:14;101905.13;;;25.18;56.86
75414;BME280;64758;52.122;5.404;2023-06-22T09:54:41;101893.34;;;25.13;56.08
75414;BME280;64758;52.122;5.404;2023-06-22T09:57:07;101895.38;;;25.01;57.80
75414;BME280;64758;52.122;5.404;2023-06-22T09:59:34;101895.09;;;24.97;60.34
75414;BME280;64758;52.122;5.404;2023-06-22T10:02:00;101901.78;;;24.90;58.18
75414;BME280;64758;52.122;5.404;2023-06-22T10:04:27;101903.34;;;24.86;60.08
75414;BME280;64758;52.122;5.404;2023-06-22T10:06:54;101902.44;;;24.75;59.23
75414;BME280;64758;52.122;5.404;2023-06-22T10:09:20;101903.44;;;24.69;60.91
75414;BME280;64758;52.122;5.404;2023-06-22T10:11:48;101901.66;;;24.59;60.86
75414;BME280;64758;52.122;5.404;2023-06-22T10:14:14;101896.41;;;24.52;60.59
75414;BME280;64758;52.122;5.404;2023-06-22T10:16:41;101904.16;;;24.44;59.04
75414;BME280;64758;52.122;5.404;2023-06-22T10:19:08;101891.22;;;24.34;59.59
75414;BME280;64758;52.122;5.404;2023-06-22T10:21:34;101886.88;;;24.33;61.55
75414;BME280;64758;52.122;5.404;2023-06-22T10:24:01;101892.22;;;24.28;58.72
75414;BME280;64758;52.122;5.404;2023-06-22T10:26:36;101898.63;;;24.17;58.57
75414;BME280;64758;52.122;5.404;2023-06-22T10:29:03;101897.78;;;24.17;59.58
75414;BME280;64758;52.122;5.404;2023-06-22T10:31:42;101898.53;;;24.12;60.16
75414;BME280;64758;52.122;5.404;2023-06-22T10:34:09;101902.25;;;24.06;58.32
75414;BME280;64758;52.122;5.404;2023-06-22T10:36:35;101903.41;;;24.10;60.70
75414;BME280;64758;52.122;5.404;2023-06-22T10:39:02;101908.00;;;24.10;60.28
75414;BME280;64758;52.122;5.404;2023-06-22T10:41:29;101900.28;;;24.02;59.67
75414;BME280;64758;52.122;5.404;2023-06-22T10:43:57;101898.97;;;24.04;61.31
75414;BME280;64758;52.122;5.404;2023-06-22T10:46:24;101899.78;;;24.05;61.73
75414;BME280;64758;52.122;5.404;2023-06-22T10:48:52;101890.25;;;24.02;61.90
75414;BME280;64758;52.122;5.404;2023-06-22T10:51:21;101896.75;;;24.01;60.59
75414;BME280;64758;52.122;5.404;2023-06-22T10:53:47;101897.31;;;24.03;61.21
75414;BME280;64758;52.122;5.404;2023-06-22T10:56:14;101902.19;;;24.01;58.74
75414;BME280;64758;52.122;5.404;2023-06-22T10:58:40;101905.63;;;23.97;58.27
75414;BME280;64758;52.122;5.404;2023-06-22T11:01:07;101907.84;;;24.00;59.15
75414;BME280;64758;52.122;5.404;2023-06-22T11:03:42;101894.03;;;24.01;59.39
75414;BME280;64758;52.122;5.404;2023-06-22T11:06:09;101906.03;;;24.05;60.16
75414;BME280;64758;52.122;5.404;2023-06-22T11:08:35;101895.50;;;24.09;59.97
75414;BME280;64758;52.122;5.404;2023-06-22T11:11:02;101895.06;;;24.17;61.03
75414;BME280;64758;52.122;5.404;2023-06-22T11:13:28;101888.31;;;24.19;60.69
75414;BME280;64758;52.122;5.404;2023-06-22T11:15:55;101894.34;;;24.21;61.19
75414;BME280;64758;52.122;5.404;2023-06-22T11:18:21;101887.56;;;24.24;60.98
75414;BME280;64758;52.122;5.404;2023-06-22T11:20:49;101879.78;;;24.32;62.04
75414;BME280;64758;52.122;5.404;2023-06-22T11:23:18;101884.72;;;24.35;61.12
75414;BME280;64758;52.122;5.404;2023-06-22T11:25:45;101881.78;;;24.37;60.23
75414;BME280;64758;52.122;5.404;2023-06-22T11:28:12;101885.38;;;24.42;59.82
75414;BME280;64758;52.122;5.404;2023-06-22T11:30:39;101877.72;;;24.39;62.09
75414;BME280;64758;52.122;5.404;2023-06-22T11:33:05;101870.56;;;24.33;62.63
75414;BME280;64758;52.122;5.404;2023-06-22T11:35:32;101872.56;;;24.38;63.70
75414;BME280;64758;52.122;5.404;2023-06-22T11:37:59;101869.06;;;24.42;63.38
75414;BME280;64758;52.122;5.404;2023-06-22T11:40:25;101864.78;;;24.46;63.47
75414;BME280;64758;52.122;5.404;2023-06-22T11:42:52;101852.81;;;24.47;64.67
75414;BME280;64758;52.122;5.404;2023-06-22T11:45:19;101855.34;;;24.49;64.72
75414;BME280;64758;52.122;5.404;2023-06-22T11:47:47;101854.41;;;24.43;62.94
75414;BME280;64758;52.122;5.404;2023-06-22T11:50:13;101851.88;;;24.37;63.50
75414;BME280;64758;52.122;5.404;2023-06-22T11:52:40;101853.03;;;24.41;65.06
75414;BME280;64758;52.122;5.404;2023-06-22T11:55:07;101851.69;;;24.43;65.05
75414;BME280;64758;52.122;5.404;2023-06-22T11:57:36;101848.72;;;24.45;64.30
75414;BME280;64758;52.122;5.404;2023-06-22T12:00:03;101840.25;;;24.41;63.98
75414;BME280;64758;52.122;5.404;2023-06-22T12:02:44;101843.53;;;24.43;64.68
75414;BME280;64758;52.122;5.404;2023-06-22T12:05:13;101844.94;;;24.46;64.92
75414;BME280;64758;52.122;5.404;2023-06-22T12:07:40;101846.25;;;24.43;64.88
75414;BME280;64758;52.122;5.404;2023-06-22T12:10:07;101843.72;;;24.37;65.40
75414;BME280;64758;52.122;5.404;2023-06-22T12:12:34;101844.53;;;24.37;64.08
75414;BME280;64758;52.122;5.404;2023-06-22T12:15:00;101836.31;;;24.32;64.84
75414;BME280;64758;52.122;5.404;2023-06-22T12:17:30;101836.91;;;24.34;65.45
75414;BME280;64758;52.122;5.404;2023-06-22T12:19:56;101837.16;;;24.33;65.10
75414;BME280;64758;52.122;5.404;2023-06-22T12:22:23;101830.81;;;24.27;65.90
75414;BME280;64758;52.122;5.404;2023-06-22T12:24:49;101834.31;;;24.23;65.43
75414;BME280;64758;52.122;5.404;2023-06-22T12:27:17;101834.75;;;24.15;66.23
75414;BME280;64758;52.122;5.404;2023-06-22T12:29:45;101825.38;;;24.06;67.02
75414;BME280;64758;52.122;5.404;2023-06-22T12:32:12;101830.50;;;24.02;68.90
75414;BME280;64758;52.122;5.404;2023-06-22T12:34:42;101824.09;;;23.92;70.81
75414;BME280;64758;52.122;5.404;2023-06-22T12:37:09;101829.63;;;23.80;72.33
75414;BME280;64758;52.122;5.404;2023-06-22T12:39:35;101822.94;;;23.71;71.81
75414;BME280;64758;52.122;5.404;2023-06-22T12:42:02;101827.72;;;23.64;72.88
75414;BME280;64758;52.122;5.404;2023-06-22T12:44:29;101823.38;;;23.63;73.40
75414;BME280;64758;52.122;5.404;2023-06-22T12:46:55;101819.00;;;23.62;73.18
75414;BME280;64758;52.122;5.404;2023-06-22T12:49:22;101819.31;;;23.66;72.65
75414;BME280;64758;52.122;5.404;2023-06-22T12:51:48;101819.66;;;23.69;74.45
75414;BME280;64758;52.122;5.404;2023-06-22T12:54:15;101816.94;;;23.69;75.62
75414;BME280;64758;52.122;5.404;2023-06-22T12:56:42;101816.28;;;23.62;76.28